Washta, Iowa
Current Conditions -  °F | °C
As of 9:55 PM on Tuesday 25 Nov 2014 (Local Time) from KCKP Reporting Station
Light Snow Light Snow  
Wind Chill: 23°   Ceiling: 1400
Heat Index: 31°   Visibility: 3mi
Dew Point: 26°   Wind: 9mph
Humidity: 82%   Direction: 160°SSE
Pressure: 29.89"   Gusts: NA
Location:  42.58°N, 95.72°W
Report Text: KCKP 260355Z AUTO 16008KT 3SM -SN BKN014 OVC021 00/M03 A2989 RMK AO2 T10041031
Loading
Personal Weather Stations






























Interactive Weather Map New forecast layout! Learn more

10-Day Weather Forecast

Advertisements
Track Severe Weather on mobile